createdAt,value
2018-07-12T00:00:18.991Z,14.20
2018-07-12T00:02:47.010Z,14.10
2018-07-12T00:05:15.056Z,14.10
2018-07-12T00:07:43.103Z,14.00
2018-07-12T00:10:11.148Z,14.00
2018-07-12T00:12:39.181Z,14.00
2018-07-12T00:15:08.010Z,14.00
2018-07-12T00:17:36.075Z,14.00
2018-07-12T00:22:32.284Z,14.00
2018-07-12T00:25:00.411Z,14.00
2018-07-12T00:27:28.452Z,13.90
2018-07-12T00:29:56.516Z,13.90
2018-07-12T00:32:24.740Z,14.00
2018-07-12T00:34:53.105Z,13.90
2018-07-12T00:37:21.615Z,13.90
2018-07-12T00:39:50.092Z,14.00
2018-07-12T00:42:18.150Z,14.00
2018-07-12T00:44:46.191Z,14.00
2018-07-12T00:47:14.243Z,14.00
2018-07-12T00:49:42.312Z,14.10
2018-07-12T00:52:10.365Z,14.10
2018-07-12T00:54:38.420Z,14.10
2018-07-12T00:57:06.452Z,14.10
2018-07-12T00:59:34.519Z,14.10
2018-07-12T01:02:03.007Z,14.10
2018-07-12T01:04:31.108Z,14.10
2018-07-12T01:06:59.168Z,14.10
2018-07-12T01:09:27.216Z,14.20
2018-07-12T01:11:55.291Z,14.20
2018-07-12T01:14:23.392Z,14.20
2018-07-12T01:16:51.560Z,14.30
2018-07-12T01:19:19.622Z,14.30
2018-07-12T01:21:47.692Z,14.40
2018-07-12T01:24:15.731Z,14.40
2018-07-12T01:26:43.896Z,14.50
2018-07-12T01:29:11.955Z,14.50
2018-07-12T01:31:39.990Z,14.50
2018-07-12T01:34:08.035Z,14.50
2018-07-12T01:36:36.083Z,14.60
2018-07-12T01:39:04.922Z,14.50
2018-07-12T01:41:32.986Z,14.50
2018-07-12T01:44:01.043Z,14.50
2018-07-12T01:46:29.083Z,14.50
2018-07-12T01:48:57.139Z,14.50
2018-07-12T01:51:25.186Z,14.50
2018-07-12T01:53:53.238Z,14.40
2018-07-12T01:56:21.282Z,14.30
2018-07-12T01:58:49.559Z,14.30
2018-07-12T02:01:17.615Z,14.20
2018-07-12T02:03:45.669Z,14.10
2018-07-12T02:06:13.705Z,14.10
2018-07-12T02:08:41.763Z,14.00
2018-07-12T02:11:09.813Z,13.90
2018-07-12T02:13:38.234Z,14.00
2018-07-12T02:16:06.285Z,14.00
2018-07-12T02:18:34.335Z,14.00
2018-07-12T02:21:02.388Z,14.00
2018-07-12T02:23:30.471Z,14.10
2018-07-12T02:25:58.543Z,14.10
2018-07-12T02:28:26.587Z,14.10
2018-07-12T02:30:54.652Z,14.20
2018-07-12T02:33:22.707Z,14.30
2018-07-12T02:35:50.743Z,14.40
2018-07-12T02:38:24.833Z,14.50
2018-07-12T02:40:52.979Z,14.50
2018-07-12T02:43:21.017Z,14.50
2018-07-12T02:45:49.113Z,14.60
2018-07-12T02:48:17.154Z,14.60
2018-07-12T02:50:45.315Z,14.60
2018-07-12T02:53:13.359Z,14.60
2018-07-12T02:55:41.403Z,14.70
2018-07-12T02:58:09.468Z,14.80
2018-07-12T03:00:37.525Z,14.70
2018-07-12T03:03:05.561Z,14.70
2018-07-12T03:05:33.620Z,14.70
2018-07-12T03:08:01.786Z,14.70
2018-07-12T03:10:29.807Z,14.70
2018-07-12T03:12:57.874Z,14.60
2018-07-12T03:15:25.906Z,14.60
2018-07-12T03:17:53.940Z,14.60
2018-07-12T03:20:22.016Z,14.70
2018-07-12T03:22:50.044Z,14.70
2018-07-12T03:25:18.111Z,14.70
2018-07-12T03:27:46.157Z,14.70
2018-07-12T03:30:14.239Z,14.70
2018-07-12T03:32:42.279Z,14.70
2018-07-12T03:35:10.335Z,14.80
2018-07-12T03:37:38.401Z,14.80
2018-07-12T03:40:06.923Z,14.80
2018-07-12T03:42:35.339Z,14.80
2018-07-12T03:45:03.412Z,14.90
2018-07-12T03:47:31.482Z,14.90
2018-07-12T03:49:59.531Z,14.90
2018-07-12T03:52:27.598Z,15.00
2018-07-12T03:54:55.660Z,15.00
2018-07-12T03:57:23.702Z,15.00
2018-07-12T03:59:51.767Z,15.00
2018-07-12T04:02:19.779Z,15.00
2018-07-12T04:04:48.730Z,15.10
2018-07-12T04:07:16.743Z,15.10
2018-07-12T04:09:44.805Z,15.10
2018-07-12T04:12:12.868Z,15.20
2018-07-12T04:14:40.907Z,15.20
2018-07-12T04:17:08.991Z,15.30
2018-07-12T04:19:37.044Z,15.30
2018-07-12T04:22:05.100Z,15.40
2018-07-12T04:24:33.194Z,15.40
2018-07-12T04:27:01.231Z,15.40
2018-07-12T04:29:29.307Z,15.40
2018-07-12T04:31:57.367Z,15.50
2018-07-12T04:34:25.433Z,15.60
2018-07-12T04:36:53.667Z,15.70
2018-07-12T04:39:21.716Z,15.70
2018-07-12T04:41:49.787Z,15.80
2018-07-12T04:44:17.986Z,15.80
2018-07-12T04:46:46.072Z,15.90
2018-07-12T04:49:14.100Z,15.90
2018-07-12T04:51:42.207Z,15.90
2018-07-12T04:54:10.257Z,16.00
2018-07-12T04:56:38.330Z,15.90
2018-07-12T04:59:06.466Z,16.10
2018-07-12T05:01:34.559Z,16.10
2018-07-12T05:04:02.607Z,16.10
2018-07-12T05:06:30.682Z,16.30
2018-07-12T05:08:58.738Z,16.40
2018-07-12T05:11:26.803Z,16.50
2018-07-12T05:13:55.372Z,16.60
2018-07-12T05:16:23.776Z,16.70
2018-07-12T05:18:52.001Z,16.70
2018-07-12T05:21:20.052Z,16.80
2018-07-12T05:23:48.110Z,16.90
2018-07-12T05:26:16.139Z,17.00
2018-07-12T05:31:13.298Z,17.20
2018-07-12T05:33:41.338Z,17.30
2018-07-12T05:36:18.013Z,17.30
2018-07-12T05:38:47.110Z,17.40
2018-07-12T05:41:16.224Z,17.50
2018-07-12T05:43:45.295Z,17.50
2018-07-12T05:46:14.443Z,17.50
2018-07-12T05:48:43.523Z,17.50
2018-07-12T05:51:12.628Z,17.20
2018-07-12T05:53:41.734Z,17.30
2018-07-12T05:56:10.804Z,17.30
2018-07-12T05:58:39.868Z,17.40
2018-07-12T06:01:20.377Z,17.50
2018-07-12T06:03:49.547Z,17.50
2018-07-12T06:06:18.608Z,17.40
2018-07-12T06:08:47.676Z,17.30
2018-07-12T06:11:16.839Z,17.30
2018-07-12T06:13:45.914Z,17.10
2018-07-12T06:16:14.988Z,17.20
2018-07-12T06:18:44.092Z,17.20
2018-07-12T06:21:13.354Z,17.40
2018-07-12T06:23:42.407Z,17.70
2018-07-12T06:26:11.475Z,17.70
2018-07-12T06:28:40.669Z,18.00
2018-07-12T06:31:09.812Z,18.10
2018-07-12T06:33:39.152Z,18.20
2018-07-12T06:36:08.229Z,18.30
2018-07-12T06:38:37.328Z,18.40
2018-07-12T06:41:06.756Z,18.40
2018-07-12T06:43:35.848Z,18.30
2018-07-12T06:46:05.144Z,18.30
2018-07-12T06:48:34.275Z,18.30
2018-07-12T06:51:03.390Z,18.30
2018-07-12T06:53:32.726Z,18.00
2018-07-12T06:56:01.797Z,17.90
2018-07-12T06:58:30.860Z,17.70
2018-07-12T07:00:59.934Z,17.70
2018-07-12T07:03:29.223Z,17.70
2018-07-12T07:05:58.321Z,17.80
2018-07-12T07:10:56.235Z,18.00
2018-07-12T07:13:25.315Z,18.00
2018-07-12T07:15:54.366Z,18.00
2018-07-12T07:18:23.443Z,18.00
2018-07-12T07:20:52.540Z,18.00
2018-07-12T07:23:21.643Z,17.90
2018-07-12T07:25:50.748Z,17.80
2018-07-12T07:28:19.844Z,17.80
2018-07-12T07:30:48.931Z,17.90
2018-07-12T07:33:18.023Z,18.10
2018-07-12T07:35:47.601Z,18.10
2018-07-12T07:38:16.654Z,18.20
2018-07-12T07:40:45.731Z,18.30
2018-07-12T07:43:14.963Z,18.30
2018-07-12T07:45:43.908Z,18.60
2018-07-12T07:48:12.972Z,18.70
2018-07-12T07:50:42.055Z,18.90
2018-07-12T07:53:11.106Z,19.00
2018-07-12T07:55:40.184Z,19.20
2018-07-12T07:58:09.252Z,19.20
2018-07-12T08:00:38.344Z,19.30
2018-07-12T08:03:07.615Z,19.30
2018-07-12T08:05:36.723Z,19.30
2018-07-12T08:08:05.999Z,19.50
2018-07-12T08:10:35.091Z,19.70
2018-07-12T08:13:04.206Z,19.80
2018-07-12T08:15:33.296Z,19.90
2018-07-12T08:18:02.491Z,20.10
2018-07-12T08:20:31.598Z,20.30
2018-07-12T08:23:00.647Z,20.70
2018-07-12T08:25:29.783Z,20.90
2018-07-12T08:28:10.374Z,20.90
2018-07-12T08:30:39.603Z,21.00
2018-07-12T08:33:08.699Z,21.00
2018-07-12T08:35:37.972Z,21.10
2018-07-12T08:38:07.063Z,21.50
2018-07-12T08:40:36.065Z,22.00
2018-07-12T08:43:04.975Z,22.00
2018-07-12T08:45:34.078Z,22.00
2018-07-12T08:48:03.003Z,21.80
2018-07-12T08:50:31.967Z,21.80
2018-07-12T08:55:29.596Z,21.90
2018-07-12T08:57:58.556Z,22.10
2018-07-12T09:00:27.726Z,22.30
2018-07-12T09:02:56.713Z,22.50
2018-07-12T09:05:25.728Z,22.30
2018-07-12T09:07:54.696Z,22.20
2018-07-12T09:10:23.688Z,22.20
2018-07-12T09:12:52.627Z,22.00
2018-07-12T09:15:21.576Z,22.10
2018-07-12T09:17:50.547Z,22.00
2018-07-12T09:20:19.511Z,22.10
2018-07-12T09:22:48.492Z,22.50
2018-07-12T09:25:17.465Z,23.00
2018-07-12T09:27:46.597Z,23.20
2018-07-12T09:30:15.646Z,23.00
2018-07-12T09:32:44.665Z,22.90
2018-07-12T09:35:13.632Z,22.90
2018-07-12T09:37:42.629Z,23.00
2018-07-12T09:40:11.692Z,22.80
2018-07-12T09:42:40.636Z,22.90
2018-07-12T09:45:09.616Z,22.70
2018-07-12T09:50:07.211Z,23.00
2018-07-12T09:52:36.155Z,23.20
2018-07-12T09:55:05.103Z,23.40
2018-07-12T09:57:45.548Z,23.60
2018-07-12T10:00:15.111Z,23.90
2018-07-12T10:02:49.467Z,23.60
2018-07-12T10:05:23.895Z,23.30
2018-07-12T10:07:59.465Z,22.90
2018-07-12T10:10:30.826Z,22.80
2018-07-12T10:13:05.023Z,22.60
2018-07-12T10:15:39.427Z,22.40
2018-07-12T10:18:13.977Z,22.30
2018-07-12T10:20:43.102Z,22.30
2018-07-12T10:23:12.059Z,22.40
2018-07-12T10:25:41.035Z,22.60
2018-07-12T10:28:10.095Z,23.00
2018-07-12T10:30:39.099Z,23.30
2018-07-12T10:33:08.045Z,23.40
2018-07-12T10:35:37.006Z,23.60
2018-07-12T10:38:06.305Z,23.70
2018-07-12T10:40:35.268Z,23.70
2018-07-12T10:43:04.248Z,23.90
2018-07-12T10:45:33.207Z,23.80
2018-07-12T10:48:02.209Z,23.60
2018-07-12T10:50:31.163Z,23.30
2018-07-12T10:53:00.099Z,23.10
2018-07-12T10:55:29.163Z,23.10
2018-07-12T10:57:58.128Z,22.90
2018-07-12T11:00:27.368Z,23.10
2018-07-12T11:02:56.323Z,23.40
2018-07-12T11:05:25.284Z,23.80
2018-07-12T11:07:55.028Z,24.30
2018-07-12T11:13:04.167Z,24.70
2018-07-12T11:15:33.237Z,24.90
2018-07-12T11:18:02.218Z,25.00
2018-07-12T11:20:31.242Z,25.10
2018-07-12T11:23:00.183Z,24.90
2018-07-12T11:25:29.543Z,24.50
2018-07-12T11:30:28.064Z,24.30
2018-07-12T11:32:58.152Z,24.50
2018-07-12T11:35:27.111Z,24.70
2018-07-12T11:37:56.101Z,24.90
2018-07-12T11:40:25.061Z,25.20
2018-07-12T11:42:54.019Z,25.30
2018-07-12T11:45:22.971Z,25.40
2018-07-12T11:47:51.913Z,25.40
2018-07-12T11:50:20.843Z,25.50
2018-07-12T11:52:49.822Z,25.40
2018-07-12T11:55:18.792Z,25.20
2018-07-12T11:57:47.787Z,25.00
2018-07-12T12:00:16.715Z,25.00
2018-07-12T12:02:45.771Z,25.20
2018-07-12T12:05:14.712Z,25.60
2018-07-12T12:07:43.747Z,26.00
2018-07-12T12:10:12.692Z,26.40
2018-07-12T12:12:41.649Z,26.70
2018-07-12T12:15:10.606Z,26.40
2018-07-12T12:17:39.556Z,26.60
2018-07-12T12:20:08.687Z,26.80
2018-07-12T12:22:37.640Z,26.50
2018-07-12T12:25:06.708Z,26.40
2018-07-12T12:27:35.717Z,26.50
2018-07-12T12:30:04.682Z,26.50
2018-07-12T12:32:33.639Z,26.70
2018-07-12T12:35:02.598Z,26.80
2018-07-12T12:37:31.540Z,26.60
2018-07-12T12:40:00.497Z,26.40
2018-07-12T12:42:29.447Z,26.50
2018-07-12T12:44:58.413Z,26.60
2018-07-12T12:47:27.383Z,26.70
2018-07-12T12:49:56.311Z,26.60
2018-07-12T12:52:25.299Z,26.40
2018-07-12T12:54:54.239Z,26.70
2018-07-12T12:57:23.180Z,26.90
2018-07-12T12:59:52.120Z,27.00
2018-07-12T13:02:21.126Z,26.90
2018-07-12T13:04:50.100Z,26.80
2018-07-12T13:07:19.042Z,26.80
2018-07-12T13:09:48.030Z,26.80
2018-07-12T13:12:16.963Z,26.80
2018-07-12T13:14:46.175Z,26.80
2018-07-12T13:17:15.249Z,26.60
2018-07-12T13:19:44.235Z,26.80
2018-07-12T13:22:13.176Z,27.00
2018-07-12T13:24:42.195Z,26.70
2018-07-12T13:27:11.136Z,26.60
2018-07-12T13:32:08.731Z,25.90
2018-07-12T13:34:37.696Z,25.60
2018-07-12T13:37:06.642Z,25.50
2018-07-12T13:39:35.748Z,25.60
2018-07-12T13:42:04.764Z,25.50
2018-07-12T13:44:33.715Z,25.40
2018-07-12T13:47:02.700Z,25.40
2018-07-12T13:49:31.689Z,25.70
2018-07-12T13:52:00.635Z,25.90
2018-07-12T13:54:29.564Z,26.30
2018-07-12T13:56:58.499Z,26.40
2018-07-12T13:59:27.435Z,26.40
2018-07-12T14:01:56.396Z,26.50
2018-07-12T14:04:25.372Z,26.30
2018-07-12T14:06:55.179Z,26.00
2018-07-12T14:09:24.148Z,25.80
2018-07-12T14:11:53.080Z,25.60
2018-07-12T14:14:22.145Z,25.60
2018-07-12T14:16:51.178Z,25.50
2018-07-12T14:19:20.135Z,25.50
2018-07-12T14:21:49.117Z,25.70
2018-07-12T14:24:18.168Z,25.90
2018-07-12T14:26:47.155Z,25.90
2018-07-12T14:31:44.800Z,25.90
2018-07-12T14:34:13.765Z,26.00
2018-07-12T14:36:43.019Z,26.10
2018-07-12T14:39:11.959Z,26.10
2018-07-12T14:41:41.003Z,26.10
2018-07-12T14:44:09.919Z,26.30
2018-07-12T14:46:38.904Z,26.40
2018-07-12T14:49:07.899Z,26.40
2018-07-12T14:51:36.818Z,26.40
2018-07-12T14:54:05.766Z,26.40
2018-07-12T14:56:34.723Z,26.60
2018-07-12T14:59:03.889Z,26.50
2018-07-12T15:01:33.023Z,26.70
2018-07-12T15:04:01.953Z,26.80
2018-07-12T15:06:30.899Z,27.00
2018-07-12T15:08:59.871Z,27.00
2018-07-12T15:11:28.779Z,27.10
2018-07-12T15:13:57.707Z,27.40
2018-07-12T15:16:26.665Z,27.80
2018-07-12T15:18:55.636Z,28.00
2018-07-12T15:21:24.619Z,28.20
2018-07-12T15:23:53.563Z,28.30
2018-07-12T15:26:22.591Z,28.00
2018-07-12T15:28:51.511Z,27.80
2018-07-12T15:31:20.455Z,27.50
2018-07-12T15:33:49.384Z,26.90
2018-07-12T15:36:18.354Z,26.50
2018-07-12T15:38:47.377Z,26.20
2018-07-12T15:41:16.319Z,26.00
2018-07-12T15:43:45.258Z,25.80
2018-07-12T15:46:14.215Z,25.50
2018-07-12T15:48:43.162Z,25.30
2018-07-12T15:51:12.128Z,25.10
2018-07-12T15:53:41.091Z,24.90
2018-07-12T15:56:10.047Z,24.80
2018-07-12T15:58:38.971Z,24.60
2018-07-12T16:01:07.989Z,24.50
2018-07-12T16:03:36.946Z,24.40
2018-07-12T16:06:05.871Z,24.50
2018-07-12T16:08:34.940Z,24.40
2018-07-12T16:11:03.957Z,24.40
2018-07-12T16:13:32.911Z,24.60
2018-07-12T16:16:01.840Z,24.70
2018-07-12T16:20:59.459Z,25.10
2018-07-12T16:23:28.523Z,25.30
2018-07-12T16:25:58.485Z,25.30
2018-07-12T16:28:27.439Z,25.40
2018-07-12T16:30:56.407Z,25.50
2018-07-12T16:33:25.559Z,25.50
2018-07-12T16:35:54.476Z,25.40
2018-07-12T16:38:23.433Z,25.40
2018-07-12T16:40:52.393Z,25.40
2018-07-12T16:43:21.324Z,25.30
2018-07-12T16:45:50.274Z,25.40
2018-07-12T16:48:19.222Z,25.30
2018-07-12T16:50:48.187Z,25.30
2018-07-12T16:53:17.153Z,25.10
2018-07-12T16:55:46.100Z,25.10
2018-07-12T16:58:15.020Z,25.00
2018-07-12T17:00:43.983Z,25.00
2018-07-12T17:05:41.867Z,25.10
2018-07-12T17:08:10.797Z,24.90
2018-07-12T17:10:39.747Z,24.80
2018-07-12T17:13:08.722Z,24.70
2018-07-12T17:15:37.683Z,24.60
2018-07-12T17:18:07.178Z,24.50
2018-07-12T17:20:36.115Z,24.60
2018-07-12T17:23:05.071Z,24.70
2018-07-12T17:25:34.017Z,24.70
2018-07-12T17:28:02.971Z,24.70
2018-07-12T17:30:31.921Z,24.70
2018-07-12T17:33:00.881Z,24.80
2018-07-12T17:35:29.822Z,24.70
2018-07-12T17:37:58.789Z,24.80
2018-07-12T17:40:27.751Z,24.80
2018-07-12T17:42:56.715Z,24.80
2018-07-12T17:45:25.712Z,24.60
2018-07-12T17:47:54.655Z,24.50
2018-07-12T17:50:23.643Z,24.50
2018-07-12T17:52:52.632Z,24.50
2018-07-12T17:55:21.574Z,24.40
2018-07-12T17:57:50.549Z,24.50
2018-07-12T18:00:19.495Z,24.50
2018-07-12T18:02:48.828Z,24.50
2018-07-12T18:05:17.813Z,24.50
2018-07-12T18:07:46.728Z,24.40
2018-07-12T18:10:15.655Z,24.30
2018-07-12T18:12:44.699Z,24.20
2018-07-12T18:15:13.647Z,24.20
2018-07-12T18:17:42.610Z,24.30
2018-07-12T18:20:11.569Z,24.20
2018-07-12T18:22:40.511Z,24.00
2018-07-12T18:25:09.536Z,23.90
2018-07-12T18:27:38.475Z,23.90
2018-07-12T18:30:07.869Z,23.90
2018-07-12T18:32:37.043Z,23.80
2018-07-12T18:35:06.172Z,23.70
2018-07-12T18:37:35.347Z,23.70
2018-07-12T18:40:04.312Z,23.50
2018-07-12T18:42:33.267Z,23.50
2018-07-12T18:45:02.232Z,23.50
2018-07-12T18:47:31.264Z,23.50
2018-07-12T18:50:00.243Z,23.40
2018-07-12T18:52:29.196Z,23.40
2018-07-12T18:54:58.194Z,23.30
2018-07-12T18:57:27.115Z,23.30
2018-07-12T18:59:56.067Z,23.20
2018-07-12T19:02:25.065Z,23.10
2018-07-12T19:04:54.096Z,23.00
2018-07-12T19:07:23.070Z,23.00
2018-07-12T19:09:52.023Z,22.90
2018-07-12T19:12:20.998Z,22.80
2018-07-12T19:14:50.007Z,22.70
2018-07-12T19:17:19.004Z,22.60
2018-07-12T19:19:47.974Z,22.60
2018-07-12T19:22:16.966Z,22.50
2018-07-12T19:24:45.968Z,22.40
2018-07-12T19:27:14.939Z,22.40
2018-07-12T19:29:43.894Z,22.30
2018-07-12T19:32:12.851Z,22.20
2018-07-12T19:34:41.840Z,22.20
2018-07-12T19:37:10.786Z,22.10
2018-07-12T19:39:39.747Z,22.10
2018-07-12T19:42:08.704Z,22.00
2018-07-12T19:44:37.816Z,22.00
2018-07-12T19:47:06.844Z,21.90
2018-07-12T19:49:35.795Z,21.90
2018-07-12T19:54:33.580Z,21.70
2018-07-12T19:57:02.523Z,21.70
2018-07-12T19:59:31.490Z,21.60
2018-07-12T20:02:00.546Z,21.60
2018-07-12T20:04:29.576Z,21.50
2018-07-12T20:06:58.542Z,21.50
2018-07-12T20:09:27.530Z,21.40
2018-07-12T20:11:56.522Z,21.40
2018-07-12T20:14:25.496Z,21.40
2018-07-12T20:16:54.445Z,21.30
2018-07-12T20:19:23.407Z,21.30
2018-07-12T20:21:52.379Z,21.30
2018-07-12T20:24:21.399Z,21.30
2018-07-12T20:26:50.418Z,21.20
2018-07-12T20:31:48.085Z,21.10
2018-07-12T20:34:17.016Z,21.10
2018-07-12T20:36:45.995Z,21.00
2018-07-12T20:39:15.327Z,21.00
2018-07-12T20:41:44.664Z,20.90
2018-07-12T20:44:13.692Z,20.90
2018-07-12T20:49:11.351Z,20.80
2018-07-12T20:51:40.338Z,20.80
2018-07-12T20:54:09.315Z,20.80
2018-07-12T20:56:38.302Z,20.80
2018-07-12T20:59:07.241Z,20.80
2018-07-12T21:01:36.530Z,20.90
2018-07-12T21:04:05.987Z,20.90
2018-07-12T21:06:35.157Z,20.90
2018-07-12T21:09:06.495Z,20.80
2018-07-12T21:11:35.661Z,20.70
2018-07-12T21:14:04.776Z,20.70
2018-07-12T21:16:33.755Z,20.60
2018-07-12T21:19:02.731Z,20.60
2018-07-12T21:21:31.731Z,20.50
2018-07-12T21:24:00.740Z,20.50
2018-07-12T21:26:29.713Z,20.40
2018-07-12T21:28:58.656Z,20.30
2018-07-12T21:31:27.599Z,20.30
2018-07-12T21:33:56.819Z,20.20
2018-07-12T21:36:25.850Z,20.10
2018-07-12T21:38:54.839Z,20.10
2018-07-12T21:41:23.922Z,20.00
2018-07-12T21:43:52.921Z,20.00
2018-07-12T21:46:21.885Z,20.00
2018-07-12T21:48:50.916Z,19.90
2018-07-12T21:51:19.883Z,19.90
2018-07-12T21:53:48.911Z,19.80
2018-07-12T21:56:17.851Z,19.80
2018-07-12T22:01:15.528Z,19.70
2018-07-12T22:03:44.503Z,19.70
2018-07-12T22:06:14.012Z,19.60
2018-07-12T22:08:42.956Z,19.60
2018-07-12T22:11:11.919Z,19.60
2018-07-12T22:13:40.867Z,19.60
2018-07-12T22:16:09.830Z,19.60
2018-07-12T22:18:38.773Z,19.60
2018-07-12T22:21:07.807Z,19.60
2018-07-12T22:23:36.748Z,19.60
2018-07-12T22:26:05.807Z,19.50
2018-07-12T22:28:34.767Z,19.50
2018-07-12T22:31:03.726Z,19.50
2018-07-12T22:33:32.700Z,19.50
2018-07-12T22:36:01.700Z,19.60
2018-07-12T22:38:30.736Z,19.50
2018-07-12T22:40:59.739Z,19.50
2018-07-12T22:43:28.729Z,19.40
2018-07-12T22:45:57.667Z,19.30
2018-07-12T22:48:26.945Z,19.20
2018-07-12T22:50:55.843Z,19.20
2018-07-12T22:53:24.800Z,19.10
2018-07-12T22:55:53.793Z,19.00
2018-07-12T22:58:22.788Z,18.90
2018-07-12T23:00:51.803Z,18.90
2018-07-12T23:03:20.791Z,18.80
2018-07-12T23:05:49.771Z,18.80
2018-07-12T23:08:18.772Z,18.70
2018-07-12T23:10:47.717Z,18.60
2018-07-12T23:13:16.668Z,18.50
2018-07-12T23:15:45.606Z,18.40
2018-07-12T23:18:14.555Z,18.30
2018-07-12T23:20:43.528Z,18.30
2018-07-12T23:23:12.486Z,18.30
2018-07-12T23:25:41.466Z,18.20
2018-07-12T23:28:10.433Z,18.20
2018-07-12T23:30:39.389Z,18.10
2018-07-12T23:33:08.344Z,18.00
2018-07-12T23:35:37.318Z,18.00
2018-07-12T23:38:06.260Z,18.00
2018-07-12T23:40:35.275Z,17.90
2018-07-12T23:43:04.346Z,17.80
2018-07-12T23:45:33.281Z,17.80
2018-07-12T23:48:02.247Z,17.70
2018-07-12T23:50:31.266Z,17.60
2018-07-12T23:53:00.239Z,17.60
2018-07-12T23:55:29.208Z,17.50
2018-07-12T23:57:58.219Z,17.50
